• Join FlightAware (Why Join?)
  • Login
  • US Flag 
Gobble Gobble! 
08:30AM EST


 

Airport Tracker/Info


-or-


 

Live Flight TrackerFlight Track Log ✈ N477AA ✈ 08-May-2012 ✈ KDFW - KRDU

Flight Track Log - Related Links

Times and Time Zones

All times are in EDT time to prevent confusion due to time zone crossing. See the N477AA flight status page for this flight to view local times or setup timezone preferences in your user account.

Time Position Orientation Groundspeed Altitude Reporting Facility
EDT Latitude Longitude Course Direction KTS MPH feet Rate Location/Type
04:40PM 32.7058 -97.0172 358° North  Level FlightAware Approximate
04:40PM 32.9278 -97.0247 69° East 172 198 1,900  Level FAA TRACON SMA TRACON (SMA)
04:45PM 33.0333 -96.7000 78° East 319 367 10,400 1,860 Climbing Dallas / Fort Worth TRACON
04:46PM 33.0464 -96.6256 85° East 340 391 12,100 2,280 Climbing FAA TRACON SMA TRACON (SMA)
04:46PM 33.0517 -96.5453 85° East 353 406 13,700 2,400 Climbing FAA TRACON SMA TRACON (SMA)
04:47PM 33.0578 -96.4625 83° East 364 419 15,400 2,160 Climbing FAA TRACON SMA TRACON (SMA)
04:48PM 33.0650 -96.3881 76° East 370 426 16,600 1,860 Climbing FAA TRACON SMA TRACON (SMA)
04:48PM 33.0822 -96.3042 67° East 381 438 17,900 1,980 Climbing FAA TRACON SMA TRACON (SMA)
04:49PM 33.1114 -96.2217 68° East 390 449 19,300 1,860 Climbing FAA TRACON SMA TRACON (SMA)
04:50PM 33.1358 -96.1481 71° East 389 448 20,400 1,380 Climbing FAA TRACON SMA TRACON (SMA)
04:50PM 33.1603 -96.0614 72° East 400 460 21,200 1,140 Climbing FAA TRACON SMA TRACON (SMA)
04:51PM 33.1850 -95.9722 70° East 411 473 22,000 1,200 Climbing FAA TRACON SMA TRACON (SMA)
04:52PM 33.2067 -95.9028 72° East 415 478 22,800 1,260 Climbing FAA TRACON SMA TRACON (SMA)
04:53PM 33.2522 -95.7367 73° East 418 481 24,300 1,140 Climbing Fort Worth Center
04:54PM 33.2878 -95.5994 73° East 427 491 25,300 960 Climbing Fort Worth Center
04:55PM 33.3233 -95.4594 74° East 427 491 26,300 840 Climbing Fort Worth Center
04:56PM 33.3508 -95.3444 69° East 432 497 27,000 900 Climbing Fort Worth Center
04:57PM 33.4064 -95.1739 78° East 448 516 28,100 900 Climbing Fort Worth Center
04:58PM 33.4328 -95.0264 85° East 453 521 28,900 840 Climbing Fort Worth Center
04:59PM 33.4444 -94.8692 82° East 453 521 29,800 900 Climbing Fort Worth Center
05:00PM 33.4619 -94.7094 85° East 471 542 30,700 840 Climbing Fort Worth Center
05:01PM 33.4731 -94.5497 84° East 476 548 31,500 780 Climbing Fort Worth Center
05:02PM 33.4844 -94.4222 83° East 481 554 32,300 660 Climbing Fort Worth Center
05:03PM 33.5011 -94.2475 85° East 481 554 32,900 300 Climbing Fort Worth Center
05:04PM 33.5136 -94.0875 83° East 486 559 33,000  Climbing Fort Worth Center
05:05PM 33.5300 -93.9200 86° East 486 559 33,000  Level Fort Worth Center
05:06PM 33.5400 -93.7550 84° East 486 559 33,000  Level Fort Worth Center
05:07PM 33.5539 -93.5925 86° East 491 565 33,000  Level Fort Worth Center
05:08PM 33.5636 -93.4325 85° East 491 565 33,000  Level Fort Worth Center
05:09PM 33.5750 -93.2675 85° East 486 559 33,000  Level Fort Worth Center
05:10PM 33.5961 -92.9958 85° East 479 551 33,000  Level Memphis Center
05:11PM 33.6078 -92.8339 86° East 479 551 33,000  Level Memphis Center
05:12PM 33.6172 -92.6697 84° East 484 557 33,000  Level Memphis Center
05:13PM 33.6306 -92.5053 84° East 484 557 33,000  Level Memphis Center
05:14PM 33.6436 -92.3433 87° East 484 557 33,000  Level Memphis Center
05:15PM 33.6503 -92.1814 76° East 484 557 33,000  Level Memphis Center
05:16PM 33.6817 -92.0247 77° East 479 551 33,000  Level Memphis Center
05:17PM 33.7128 -91.8656 77° East 479 551 33,000  Level Memphis Center
05:18PM 33.7439 -91.7011 71° East 486 559 33,000  Level Memphis Center
05:19PM 33.7872 -91.5469 72° East 486 559 33,000  Level Memphis Center
05:20PM 33.8283 -91.3925 72° East 491 565 33,000  Level Memphis Center
05:21PM 33.8669 -91.2528 72° East 491 565 33,000  Level Memphis Center
05:22PM 33.9097 -91.0956 67° East 486 559 33,000  Level Memphis Center
05:23PM 33.9628 -90.9458 67° East 481 554 33,000  Level Memphis Center
05:24PM 34.0156 -90.7983 64° Northeast 486 559 33,000  Level Memphis Center
05:25PM 34.0764 -90.6481 62° Northeast 486 559 33,000  Level Memphis Center
05:26PM 34.1392 -90.5053 63° Northeast 486 559 33,000  Level Memphis Center
05:27PM 34.2019 -90.3572 62° Northeast 486 559 33,000  Level Memphis Center
05:28PM 34.2706 -90.2014 61° Northeast 481 554 33,000  Level Memphis Center
05:29PM 34.3372 -90.0553 64° Northeast 476 548 33,000  Level Memphis Center
05:30PM 34.3972 -89.9092 61° Northeast 476 548 33,000  Level Memphis Center
05:31PM 34.4633 -89.7650 64° Northeast 476 548 33,000  Level Memphis Center
05:32PM 34.5231 -89.6186 67° East 482 555 33,000  Level Memphis Center
05:33PM 34.5764 -89.4642 69° East 482 555 33,000 -60 Level Memphis Center
05:34PM 34.6253 -89.3072 75° East 488 562 32,900 -600 Descending Memphis Center
05:35PM 34.6592 -89.1503 75° East 488 562 31,900 -900 Descending Memphis Center
05:36PM 34.6931 -88.9981 80° East 468 539 31,200 -480 Descending Memphis Center
05:37PM 34.7164 -88.8386 85° East 468 539 31,000 -120 Descending Memphis Center
05:38PM 34.7289 -88.6792 84° East 468 539 31,000 -600 Level Memphis Center
05:39PM 34.7433 -88.5172 89° East 473 544 29,800 -1,020 Descending Memphis Center
05:40PM 34.7456 -88.3883 98° East 453 521 29,000 -420 Descending Memphis Center
05:41PM 34.7283 -88.2369 96° East 442 509 29,000  Level Memphis Center
05:42PM 34.7128 -88.0631 95° East 463 533 29,000  Level Memphis Center
05:43PM 34.7019 -87.9269 96° East 456 525 29,000  Level Memphis Center
05:44PM 34.6883 -87.7733 96° East 463 533 29,000  Level Memphis Center
05:46PM 34.6636 -87.5061 96° East 470 541 29,000  Level Atlanta Center
05:47PM 34.6492 -87.3489 98° East 470 541 29,000  Level Atlanta Center
05:48PM 34.6308 -87.1817 98° East 465 535 29,000  Level Atlanta Center
05:49PM 34.6136 -87.0272 97° East 465 535 29,000  Level Atlanta Center
05:50PM 34.5986 -86.8700 97° East 465 535 29,000  Level Atlanta Center
05:51PM 34.5831 -86.7208 97° East 465 535 29,000  Level Atlanta Center
05:52PM 34.5658 -86.5511 97° East 465 535 29,000  Level Atlanta Center
05:53PM 34.5500 -86.3994 97° East 465 535 29,000  Level Atlanta Center
05:54PM 34.5342 -86.2478 97° East 465 535 29,000  Level Atlanta Center
05:55PM 34.5181 -86.0933 98° East 465 535 29,000  Level Atlanta Center
05:56PM 34.4997 -85.9392 98° East 465 535 29,000  Level Atlanta Center
05:57PM 34.4792 -85.7700 99° East 465 535 29,000  Level Atlanta Center
05:58PM 34.4603 -85.6183 97° East 460 529 29,000  Level Atlanta Center
05:59PM 34.4456 -85.4644 99° East 460 529 29,000  Level Atlanta Center
06:00PM 34.4264 -85.3106 97° East 460 529 29,000  Level Atlanta Center
06:01PM 34.4131 -85.1719 98° East 466 536 29,000  Level Atlanta Center
06:02PM 34.3936 -85.0028 98° East 466 536 29,000  Level Atlanta Center
06:03PM 34.3761 -84.8492 99° East 466 536 29,000  Level Atlanta Center
06:04PM 34.3561 -84.6906 98° East 466 536 29,000  Level Atlanta Center
06:05PM 34.3381 -84.5369 98° East 466 536 29,000  Level Atlanta Center
06:06PM 34.3197 -84.3808 93° East 466 536 29,000  Level Atlanta Center
06:07PM 34.3139 -84.2250 91° East 466 536 29,000  Level Atlanta Center
06:08PM 34.3119 -84.0842 90° East 461 531 29,000  Level Atlanta Center
06:09PM 34.3119 -83.9281 90° East 461 531 29,000  Level Atlanta Center
06:10PM 34.3117 -83.7722 87° East 461 531 29,000  Level Atlanta Center
06:11PM 34.3175 -83.6189 87° East 455 524 29,000  Level Atlanta Center
06:12PM 34.3250 -83.4350 86° East 455 524 29,000  Level Atlanta Center
06:13PM 34.3344 -83.2817 86° East 460 529 29,000  Level Atlanta Center
06:14PM 34.3439 -83.1231 80° East 460 529 29,000  Level Atlanta Center
06:15PM 34.3656 -82.9692 80° East 460 529 29,000  Level Atlanta Center
06:16PM 34.3892 -82.8003 78° East 468 539 29,000  Level Atlanta Center
06:17PM 34.4147 -82.6489 80° East 461 531 29,000  Level Atlanta Center
06:18PM 34.4358 -82.4975 80° East 461 531 29,000  Level Atlanta Center
06:19PM 34.4589 -82.3433 80° East 461 531 29,000 -240 Level Atlanta Center
06:21PM 34.4817 -82.1892 80° East 461 531 28,600 -720 Descending Atlanta Center
06:22PM 34.5042 -82.0375 80° East 466 536 27,500 -600 Descending Atlanta Center
06:25PM 34.5819 -81.5006 80° East 420 483 26,000 -360 Descending Jacksonville Center
06:26PM 34.6031 -81.3539 80° East 433 498 26,000  Level Jacksonville Center
06:27PM 34.6242 -81.2122 80° East 433 498 26,000  Level Jacksonville Center
06:28PM 34.6450 -81.0631 81° East 433 498 26,000  Level Jacksonville Center
06:29PM 34.6639 -80.9211 83° East 428 493 26,000 -180 Level Jacksonville Center
06:30PM 34.6783 -80.7769 93° East 428 493 25,700 -600 Descending Jacksonville Center
06:31PM 34.6717 -80.6433 96° East 428 493 24,900 -900 Descending Jacksonville Center
06:32PM 34.6586 -80.4997 70° East 428 493 24,000 -480 Descending Jacksonville Center
06:33PM 34.6978 -80.3675 72° East 412 474 24,000 -840 Level Jacksonville Center
06:35PM 34.7497 -80.1697 66° East 404 465 22,100 -1,260 Descending Washington Center
06:36PM 34.7961 -80.0433 40° Northeast 409 471 21,000 -600 Descending Washington Center
06:37PM 34.8722 -79.9664 42° Northeast 392 451 21,000  Level Washington Center
06:38PM 34.9547 -79.8747 42° Northeast 387 445 21,000  Level Washington Center
06:39PM 35.0394 -79.7828 43° Northeast 397 457 21,000 -660 Level Washington Center
06:40PM 35.1197 -79.6928 41° Northeast 397 457 19,700 -1,740 Descending Washington Center
06:41PM 35.2083 -79.5983 31° Northeast 397 457 17,500 -2,100 Descending Washington Center
06:42PM 35.2897 -79.5389 29° Northeast 383 441 15,500 -2,160 Descending Washington Center
06:42PM 35.3858 -79.4722 30° Northeast 370 426 13,300 -1,980 Descending Washington Center
06:44PM 35.4839 -79.4031 48° Northeast 349 402 11,300 -1,080 Descending Washington Center
06:45PM 35.5472 -79.3167 54° Northeast 337 388 11,000 -240 Descending Washington Center
06:46PM 35.5936 -79.2369 56° Northeast 333 383 10,900 -60 Descending Washington Center
06:47PM 35.6378 -79.1572 56° Northeast 321 369 10,900 -480 Level Washington Center
06:48PM 35.6861 -79.0700 57° Northeast 314 361 10,000 -900 Descending Washington Center
06:49PM 35.7458 -78.9547 27° Northeast 304 350 9,000 -480 Descending Washington Center
06:50PM 35.8139 -78.9117 19° North 283 326 9,000  Level Washington Center
06:51PM 35.8814 -78.8836 17° North 251 289 9,000 -600 Level Washington Center
06:52PM 35.9489 -78.8583 43° Northeast 242 278 7,800 -1,800 Descending Washington Center
06:53PM 35.9983 -78.8014 39° Northeast 250 288 5,500 -2,040 Descending Washington Center
06:54PM 36.0519 -78.7469 39° Northeast 244 281 3,700 -1,740 Descending Washington Center